Time;durP1;ratioP1;P1;durP2;ratioP2;P2;SDS_P1;SDS_P2;PMS_P1;PMS_P2;Temp;Humidity;BMP_temperature;BMP_pressure;BME280_temperature;BME280_humidity;BME280_pressure;Samples;Min_cycle;Max_cycle;Signal;HPM_P1;HPM_P2
2021/05/10 00:01:21;;;;;;;7.83;3.60;;;17.30;99.90;;;;;;5084126;28;20206;-79
2021/05/10 00:03:48;;;;;;;6.33;3.53;;;17.30;99.90;;;;;;5076011;28;20565;-78
2021/05/10 00:06:15;;;;;;;6.23;3.10;;;17.30;99.90;;;;;;5085532;28;20210;-78
2021/05/10 00:08:41;;;;;;;5.40;2.90;;;17.40;99.90;;;;;;5086833;28;20203;-76
2021/05/10 00:11:08;;;;;;;8.87;3.67;;;17.40;99.90;;;;;;5085066;28;20190;-77
2021/05/10 00:13:36;;;;;;;7.70;3.53;;;17.30;99.90;;;;;;5087518;28;20283;-77
2021/05/10 00:16:03;;;;;;;5.13;2.80;;;17.30;99.90;;;;;;5087577;28;20195;-78
2021/05/10 00:18:29;;;;;;;7.17;4.23;;;17.30;99.90;;;;;;5096587;28;20247;-76
2021/05/10 00:20:55;;;;;;;4.37;3.20;;;17.20;99.90;;;;;;5096282;28;20194;-76
2021/05/10 00:23:22;;;;;;;5.47;3.17;;;17.20;99.90;;;;;;5096067;28;20293;-79
2021/05/10 00:25:48;;;;;;;3.60;2.73;;;17.20;99.90;;;;;;5096005;28;20253;-78
2021/05/10 00:28:14;;;;;;;4.23;2.83;;;17.20;99.90;;;;;;5096129;28;20191;-76
2021/05/10 00:30:42;;;;;;;4.87;2.90;;;17.20;99.90;;;;;;5096331;28;20194;-76
2021/05/10 00:33:08;;;;;;;5.70;2.90;;;17.20;99.90;;;;;;5096197;28;20333;-77
2021/05/10 00:35:34;;;;;;;7.27;3.37;;;17.40;99.90;;;;;;5096153;28;20195;-77
2021/05/10 00:38:01;;;;;;;4.90;2.67;;;17.40;99.90;;;;;;5095556;28;20297;-76
2021/05/10 00:40:30;;;;;;;4.87;2.70;;;17.40;99.90;;;;;;5095919;28;20205;-76
2021/05/10 00:42:56;;;;;;;8.90;3.20;;;17.30;99.90;;;;;;5095665;28;20283;-77
2021/05/10 00:45:24;;;;;;;6.03;2.93;;;17.20;99.90;;;;;;5095881;28;20292;-76
2021/05/10 00:47:52;;;;;;;4.97;2.30;;;17.20;99.90;;;;;;5095847;28;20286;-76
2021/05/10 00:50:19;;;;;;;6.87;2.93;;;17.30;99.90;;;;;;5095776;28;20282;-78
2021/05/10 00:52:45;;;;;;;6.27;2.80;;;17.30;99.90;;;;;;5095617;28;20191;-78
2021/05/10 00:55:13;;;;;;;5.60;2.87;;;17.30;99.90;;;;;;5095820;28;20198;-76
2021/05/10 00:57:44;;;;;;;5.73;2.87;;;17.30;99.90;;;;;;5095472;28;20720;-76
2021/05/10 01:00:12;;;;;;;3.43;2.43;;;17.40;99.90;;;;;;5095874;28;20282;-79
2021/05/10 01:02:39;;;;;;;3.60;2.60;;;17.20;99.90;;;;;;5095370;28;20195;-76
2021/05/10 01:05:08;;;;;;;5.57;2.90;;;17.10;99.90;;;;;;5095213;28;20510;-76
2021/05/10 01:07:34;;;;;;;4.60;2.90;;;17.10;99.90;;;;;;5095376;28;20222;-76
2021/05/10 01:10:04;;;;;;;3.80;2.67;;;17.00;99.90;;;;;;5095238;28;20191;-77
2021/05/10 01:12:31;;;;;;;4.20;3.17;;;17.00;99.90;;;;;;5095665;28;20498;-76
2021/05/10 01:14:57;;;;;;;5.97;2.87;;;16.90;99.90;;;;;;5095520;28;20191;-76
2021/05/10 01:17:24;;;;;;;5.30;2.97;;;16.90;99.90;;;;;;5095046;28;20199;-76
2021/05/10 01:19:50;;;;;;;3.63;3.00;;;16.90;99.90;;;;;;5095168;28;20191;-78
2021/05/10 01:22:19;;;;;;;9.20;3.20;;;16.80;99.90;;;;;;5095186;28;20264;-79
2021/05/10 01:24:46;;;;;;;4.43;2.87;;;16.70;99.90;;;;;;5095002;28;20529;-76
2021/05/10 01:27:13;;;;;;;4.63;2.60;;;16.70;99.90;;;;;;5095251;28;20310;-76
2021/05/10 01:29:39;;;;;;;5.87;2.80;;;16.60;99.90;;;;;;5095268;28;20336;-76
2021/05/10 01:32:06;;;;;;;2.87;2.57;;;16.60;99.90;;;;;;5095254;28;20213;-76
2021/05/10 01:34:33;;;;;;;7.43;2.93;;;16.60;99.90;;;;;;5095551;28;20190;-75
2021/05/10 01:36:59;;;;;;;6.00;2.67;;;16.60;99.90;;;;;;5095017;28;20274;-76
2021/05/10 01:39:26;;;;;;;5.53;2.73;;;16.50;99.90;;;;;;5094819;28;20197;-76
2021/05/10 01:41:53;;;;;;;5.20;3.00;;;16.70;99.90;;;;;;5094806;28;20743;-76
2021/05/10 01:44:19;;;;;;;5.07;2.90;;;16.70;99.90;;;;;;5094874;28;20604;-76
2021/05/10 01:46:45;;;;;;;4.60;2.70;;;16.80;99.90;;;;;;5094476;28;20214;-76
2021/05/10 01:49:12;;;;;;;3.63;2.67;;;16.60;99.90;;;;;;5093937;28;20712;-75
2021/05/10 01:51:38;;;;;;;8.13;2.90;;;16.60;99.90;;;;;;5094626;28;20193;-76
2021/05/10 01:54:05;;;;;;;2.60;2.30;;;16.40;99.90;;;;;;5094845;28;20197;-75
2021/05/10 01:56:35;;;;;;;6.07;2.87;;;16.30;99.90;;;;;;5094867;28;20259;-76
2021/05/10 01:59:03;;;;;;;7.73;2.73;;;16.40;99.90;;;;;;5094468;28;20328;-77
2021/05/10 02:01:30;;;;;;;3.97;2.83;;;16.50;99.90;;;;;;5094469;28;20187;-77
2021/05/10 02:04:00;;;;;;;5.13;2.33;;;16.60;99.90;;;;;;5094224;28;20204;-77
2021/05/10 02:06:27;;;;;;;6.17;2.50;;;16.70;99.90;;;;;;5094549;28;20406;-79
2021/05/10 02:08:53;;;;;;;7.20;2.63;;;16.70;99.90;;;;;;5094450;28;20199;-76
2021/05/10 02:11:20;;;;;;;6.63;2.37;;;16.80;99.90;;;;;;5094427;28;20190;-76
2021/05/10 02:13:46;;;;;;;3.07;1.80;;;17.00;99.90;;;;;;5094162;28;20323;-76
2021/05/10 02:16:13;;;;;;;4.93;2.37;;;17.10;99.90;;;;;;5094093;28;20584;-76
2021/05/10 02:18:40;;;;;;;5.53;1.80;;;17.20;99.90;;;;;;5093969;28;20290;-75
2021/05/10 02:21:06;;;;;;;4.77;1.80;;;17.30;99.90;;;;;;5093986;28;20205;-76
2021/05/10 02:23:34;;;;;;;5.50;2.47;;;17.40;99.90;;;;;;5094115;28;20217;-76
2021/05/10 02:26:02;;;;;;;4.73;2.00;;;17.50;99.90;;;;;;5093866;28;20313;-77
2021/05/10 02:28:30;;;;;;;4.83;1.63;;;17.70;99.90;;;;;;5093968;28;20551;-76
2021/05/10 02:30:58;;;;;;;4.57;2.27;;;17.80;99.90;;;;;;5093564;28;20197;-76
2021/05/10 02:33:27;;;;;;;3.63;1.80;;;17.90;99.90;;;;;;5093783;28;20247;-77
2021/05/10 02:35:55;;;;;;;3.63;1.70;;;18.00;99.90;;;;;;5093892;28;20195;-76
2021/05/10 02:38:22;;;;;;;6.50;1.90;;;18.00;99.90;;;;;;5093585;28;20191;-76
2021/05/10 02:40:50;;;;;;;3.23;1.90;;;18.20;99.90;;;;;;5093963;28;20195;-75
2021/05/10 02:43:17;;;;;;;3.40;1.87;;;18.20;99.90;;;;;;5093546;28;20285;-76
2021/05/10 02:45:44;;;;;;;5.33;2.00;;;18.20;99.90;;;;;;5093402;28;20274;-76
2021/05/10 02:48:11;;;;;;;6.13;2.00;;;18.10;99.90;;;;;;5093763;28;20187;-75
2021/05/10 02:50:38;;;;;;;4.63;1.87;;;18.10;99.90;;;;;;5093734;28;20230;-76
2021/05/10 02:53:05;;;;;;;3.17;1.80;;;18.20;99.90;;;;;;5093558;28;20195;-76
2021/05/10 02:55:31;;;;;;;2.00;1.80;;;18.20;99.90;;;;;;5093554;28;20247;-75
2021/05/10 02:57:58;;;;;;;5.13;2.07;;;18.20;99.90;;;;;;5093408;28;20220;-75
2021/05/10 03:00:26;;;;;;;4.83;2.07;;;18.30;99.90;;;;;;5093127;28;20613;-76
2021/05/10 03:02:55;;;;;;;6.47;3.07;;;18.30;99.90;;;;;;5093239;28;20591;-78
2021/05/10 03:05:22;;;;;;;7.80;2.50;;;18.30;99.90;;;;;;5093576;28;20198;-76
2021/05/10 03:07:49;;;;;;;5.17;2.60;;;18.30;99.90;;;;;;5093300;28;20228;-76
2021/05/10 03:10:18;;;;;;;9.00;2.20;;;18.30;99.90;;;;;;5093369;28;20197;-75
2021/05/10 03:12:45;;;;;;;7.60;2.67;;;18.30;99.90;;;;;;5093198;28;20191;-75
2021/05/10 03:15:14;;;;;;;7.63;3.00;;;18.30;99.90;;;;;;5093400;28;20197;-78
2021/05/10 03:17:40;;;;;;;5.13;2.90;;;18.20;99.90;;;;;;5093243;28;20660;-76
2021/05/10 03:20:10;;;;;;;8.60;3.10;;;18.20;99.90;;;;;;5093128;28;20199;-75
2021/05/10 03:22:36;;;;;;;4.80;3.10;;;18.00;99.90;;;;;;5093102;28;20201;-76
2021/05/10 03:25:04;;;;;;;4.17;2.70;;;17.70;99.90;;;;;;5093730;28;20230;-77
2021/05/10 03:27:39;;;;;;;3.50;2.70;;;17.40;99.90;;;;;;5092956;28;20672;-76
2021/05/10 03:30:11;;;;;;;6.30;2.87;;;17.10;99.90;;;;;;5093286;28;20198;-76
2021/05/10 03:32:37;;;;;;;4.90;3.30;;;16.80;99.90;;;;;;5093261;28;20191;-76
2021/05/10 03:35:05;;;;;;;7.40;3.17;;;16.50;99.90;;;;;;5093191;28;20205;-76
2021/05/10 03:37:31;;;;;;;6.77;2.77;;;16.30;99.90;;;;;;5092963;28;20280;-76
2021/05/10 03:39:57;;;;;;;5.90;2.90;;;16.10;99.90;;;;;;5093072;28;20195;-76
2021/05/10 03:42:25;;;;;;;5.63;3.13;;;15.90;99.90;;;;;;5092887;28;20194;-76
2021/05/10 03:44:52;;;;;;;4.93;2.67;;;15.90;99.90;;;;;;5093221;28;20191;-77
2021/05/10 03:47:19;;;;;;;3.93;3.00;;;15.80;99.90;;;;;;5093112;28;20219;-76
2021/05/10 03:49:45;;;;;;;3.67;3.00;;;15.70;99.90;;;;;;5092467;28;20207;-77
2021/05/10 03:52:12;;;;;;;3.87;2.93;;;15.70;99.90;;;;;;5092700;28;20201;-77
2021/05/10 03:54:39;;;;;;;5.47;2.83;;;15.60;99.90;;;;;;5092499;28;20653;-77
2021/05/10 03:57:06;;;;;;;4.80;2.93;;;15.60;99.90;;;;;;5093210;28;20249;-78
2021/05/10 03:59:33;;;;;;;6.00;3.57;;;15.60;99.90;;;;;;5092852;28;20547;-77
2021/05/10 04:02:01;;;;;;;6.83;3.50;;;15.50;99.90;;;;;;5092943;28;20199;-78
2021/05/10 04:04:33;;;;;;;7.77;3.90;;;15.50;99.90;;;;;;5092853;28;20274;-77
2021/05/10 04:07:18;;;;;;;8.67;4.40;;;15.50;99.90;;;;;;5092539;28;20687;-78
2021/05/10 04:10:07;;;;;;;9.67;4.70;;;15.50;99.90;;;;;;5093022;28;20195;-78
2021/05/10 04:15:18;;;;;;;9.53;5.63;;;15.50;99.90;;;;;;5096381;28;20197;-76
2021/05/10 04:17:44;;;;;;;11.00;5.67;;;15.60;99.90;;;;;;5096547;28;20205;-76
2021/05/10 04:20:11;;;;;;;9.27;5.87;;;15.60;99.90;;;;;;5096193;28;20290;-77
2021/05/10 04:22:38;;;;;;;9.37;5.97;;;15.60;99.90;;;;;;5096343;28;20198;-77
2021/05/10 04:25:05;;;;;;;10.00;6.40;;;15.70;99.90;;;;;;5096215;28;20189;-77
2021/05/10 04:27:32;;;;;;;8.53;5.73;;;15.70;99.90;;;;;;5095893;28;20237;-77
2021/05/10 04:29:58;;;;;;;7.17;6.30;;;15.80;99.90;;;;;;5096162;28;20256;-77
2021/05/10 04:32:25;;;;;;;8.53;5.97;;;15.90;99.90;;;;;;5095937;28;20636;-77
2021/05/10 04:34:52;;;;;;;11.87;6.00;;;15.90;99.90;;;;;;5095981;28;20222;-76
2021/05/10 04:37:19;;;;;;;8.00;4.83;;;15.80;99.90;;;;;;5095999;28;20285;-76
2021/05/10 04:39:45;;;;;;;8.10;3.87;;;15.70;99.90;;;;;;5095967;28;20290;-76
2021/05/10 04:42:11;;;;;;;9.00;3.80;;;15.60;99.90;;;;;;5096108;28;20202;-76
2021/05/10 04:44:38;;;;;;;3.33;2.53;;;15.50;99.90;;;;;;5095715;28;20199;-76
2021/05/10 04:47:04;;;;;;;7.63;2.80;;;15.50;99.90;;;;;;5095568;28;20222;-76
2021/05/10 04:49:31;;;;;;;5.10;2.53;;;15.50;99.90;;;;;;5095628;28;20542;-76
2021/05/10 04:51:58;;;;;;;4.67;2.10;;;15.50;99.90;;;;;;5096451;28;20597;-76
2021/05/10 04:54:24;;;;;;;4.40;2.00;;;15.50;99.90;;;;;;5096378;28;20696;-77
2021/05/10 04:56:50;;;;;;;3.80;2.10;;;15.50;99.90;;;;;;5095598;28;20199;-76
2021/05/10 04:59:17;;;;;;;4.13;1.80;;;15.50;99.90;;;;;;5095441;28;20191;-76
2021/05/10 05:01:43;;;;;;;4.20;1.80;;;15.50;99.90;;;;;;5095655;28;20277;-76
2021/05/10 05:04:09;;;;;;;3.83;1.80;;;15.50;99.90;;;;;;5095359;28;20290;-76
2021/05/10 05:06:37;;;;;;;2.63;1.77;;;15.50;99.90;;;;;;5095488;28;20231;-76
2021/05/10 05:09:03;;;;;;;2.60;1.50;;;15.50;99.90;;;;;;5095445;28;20198;-76
2021/05/10 05:11:30;;;;;;;2.43;1.60;;;15.60;99.90;;;;;;5095180;28;20286;-76
2021/05/10 05:13:56;;;;;;;1.57;1.27;;;15.60;99.90;;;;;;5084487;28;20199;-76
2021/05/10 05:16:23;;;;;;;2.77;1.50;;;15.70;99.90;;;;;;5081967;28;20195;-75
2021/05/10 05:18:49;;;;;;;2.27;1.77;;;15.70;99.90;;;;;;5076601;28;20287;-75
2021/05/10 05:21:15;;;;;;;1.90;1.37;;;15.80;99.90;;;;;;5081294;28;20273;-76
2021/05/10 05:23:43;;;;;;;2.93;1.40;;;15.70;99.90;;;;;;5077827;28;20191;-76
2021/05/10 05:26:09;;;;;;;3.03;1.50;;;15.80;99.90;;;;;;5072685;28;20208;-76
2021/05/10 05:28:35;;;;;;;3.40;1.40;;;15.80;99.90;;;;;;5076689;28;20691;-76
2021/05/10 05:31:04;;;;;;;3.37;1.60;;;15.80;99.90;;;;;;5078114;28;20187;-76
2021/05/10 05:33:30;;;;;;;1.30;1.20;;;15.80;99.90;;;;;;5083712;28;20190;-76
2021/05/10 05:35:57;;;;;;;2.23;1.40;;;15.70;99.90;;;;;;5084897;28;20664;-75
2021/05/10 05:38:23;;;;;;;3.30;1.40;;;15.70;99.90;;;;;;5075009;28;20192;-76
2021/05/10 05:40:51;;;;;;;2.20;1.57;;;15.70;99.90;;;;;;5075619;28;20274;-75
2021/05/10 05:43:17;;;;;;;2.67;1.57;;;15.70;99.90;;;;;;5074234;28;20188;-75
2021/05/10 05:45:44;;;;;;;4.03;1.57;;;15.60;99.90;;;;;;5073969;28;20344;-77
2021/05/10 05:48:12;;;;;;;2.73;1.30;;;15.60;99.90;;;;;;5073792;28;20243;-76
2021/05/10 05:50:39;;;;;;;2.73;1.53;;;15.60;99.90;;;;;;5073288;28;20195;-76
2021/05/10 05:53:06;;;;;;;3.13;1.47;;;15.60;99.90;;;;;;5075348;28;20194;-76
2021/05/10 05:55:33;;;;;;;2.63;1.57;;;15.60;99.90;;;;;;5074144;28;20287;-76
2021/05/10 05:58:01;;;;;;;2.40;1.57;;;15.50;99.90;;;;;;5073470;28;20191;-76
2021/05/10 06:00:28;;;;;;;2.63;1.63;;;15.40;99.90;;;;;;5086286;28;20705;-76
2021/05/10 06:02:54;;;;;;;2.97;1.80;;;15.40;99.90;;;;;;5076648;28;20186;-77
2021/05/10 06:05:20;;;;;;;2.63;1.77;;;15.30;99.90;;;;;;5073803;28;20199;-78
2021/05/10 06:07:48;;;;;;;3.13;1.90;;;15.20;99.90;;;;;;5072987;28;20254;-77
2021/05/10 06:10:17;;;;;;;2.23;1.80;;;15.10;99.90;;;;;;5071537;28;20196;-76
2021/05/10 06:12:46;;;;;;;3.07;1.80;;;15.10;99.90;;;;;;5071152;28;20195;-76
2021/05/10 06:15:14;;;;;;;4.93;2.00;;;15.20;99.90;;;;;;5072944;28;20537;-78
2021/05/10 06:17:41;;;;;;;2.63;1.80;;;15.20;99.90;;;;;;5073260;28;20191;-75
2021/05/10 06:20:09;;;;;;;3.33;2.20;;;15.20;99.90;;;;;;5073343;28;20594;-76
2021/05/10 06:22:37;;;;;;;5.07;1.97;;;15.30;99.90;;;;;;5073280;28;20198;-76
2021/05/10 06:25:04;;;;;;;3.93;2.30;;;15.30;99.90;;;;;;5070155;28;20199;-76
2021/05/10 06:27:30;;;;;;;2.87;1.60;;;15.40;99.90;;;;;;5058530;28;20689;-76
2021/05/10 06:29:57;;;;;;;3.60;1.60;;;15.40;99.90;;;;;;5053511;28;20202;-75
2021/05/10 06:32:24;;;;;;;2.27;1.30;;;15.40;99.90;;;;;;5065081;28;20657;-76
2021/05/10 06:34:50;;;;;;;3.80;1.60;;;15.40;99.90;;;;;;5073181;28;20531;-76
2021/05/10 06:37:19;;;;;;;1.80;1.40;;;15.40;99.90;;;;;;5072623;28;20197;-75
2021/05/10 06:39:46;;;;;;;3.03;1.57;;;15.50;99.90;;;;;;5053056;28;20285;-75
2021/05/10 06:42:12;;;;;;;2.87;1.70;;;15.60;99.90;;;;;;5053098;28;20202;-75
2021/05/10 06:44:39;;;;;;;2.57;1.60;;;15.80;99.90;;;;;;5069114;28;20681;-77
2021/05/10 06:47:05;;;;;;;3.10;1.70;;;16.00;99.90;;;;;;5072883;28;20625;-77
2021/05/10 06:49:32;;;;;;;2.47;1.80;;;16.30;99.90;;;;;;5073366;28;20201;-76
2021/05/10 06:51:59;;;;;;;3.67;1.83;;;16.50;99.90;;;;;;5072959;28;20337;-78
2021/05/10 06:54:26;;;;;;;3.67;2.00;;;16.60;99.90;;;;;;5073053;28;20320;-76
2021/05/10 06:56:52;;;;;;;4.17;2.30;;;16.90;99.90;;;;;;5072930;28;20718;-77
2021/05/10 06:59:20;;;;;;;3.57;2.37;;;17.20;99.90;;;;;;5073228;28;20234;-75
2021/05/10 07:01:46;;;;;;;4.80;2.20;;;17.50;99.90;;;;;;5073088;28;20291;-76
2021/05/10 07:04:13;;;;;;;2.57;2.20;;;17.70;99.90;;;;;;5072841;28;20664;-79
2021/05/10 07:06:41;;;;;;;4.47;1.80;;;17.90;99.90;;;;;;5073200;28;20255;-75
2021/05/10 07:09:08;;;;;;;6.77;2.30;;;17.80;99.90;;;;;;5073149;28;20199;-76
2021/05/10 07:11:34;;;;;;;3.13;1.90;;;17.80;99.90;;;;;;5072862;28;20195;-76
2021/05/10 07:14:01;;;;;;;5.07;2.13;;;17.80;99.90;;;;;;5073044;28;20198;-76
2021/05/10 07:16:27;;;;;;;6.70;2.57;;;18.00;99.90;;;;;;5072409;28;20218;-76
2021/05/10 07:18:54;;;;;;;4.47;1.83;;;18.50;99.90;;;;;;5069446;28;20187;-76
2021/05/10 07:21:22;;;;;;;4.03;1.93;;;18.80;99.90;;;;;;5072267;28;20641;-76
2021/05/10 07:23:49;;;;;;;4.27;1.97;;;18.80;99.90;;;;;;5072712;28;20210;-76
2021/05/10 07:26:15;;;;;;;4.03;2.07;;;18.90;99.90;;;;;;5072444;28;20205;-75
2021/05/10 07:28:42;;;;;;;2.57;1.73;;;19.20;99.90;;;;;;5072509;28;20215;-77
2021/05/10 07:31:08;;;;;;;2.43;1.70;;;19.30;99.90;;;;;;5072267;28;20198;-77
2021/05/10 07:33:35;;;;;;;4.37;2.17;;;19.00;99.90;;;;;;5055690;28;20199;-77
2021/05/10 07:36:01;;;;;;;2.90;1.80;;;19.00;99.90;;;;;;5052550;28;20650;-75
2021/05/10 07:38:27;;;;;;;4.57;2.00;;;18.90;99.90;;;;;;5052778;28;20214;-76
2021/05/10 07:40:55;;;;;;;5.87;2.00;;;18.90;99.90;;;;;;5054203;28;20337;-76
2021/05/10 07:43:21;;;;;;;6.03;2.17;;;18.80;99.90;;;;;;5072388;28;20290;-76
2021/05/10 07:45:48;;;;;;;6.13;2.30;;;18.80;99.90;;;;;;5072545;28;20228;-78
2021/05/10 07:48:14;;;;;;;3.53;2.03;;;18.70;99.90;;;;;;5073591;28;20321;-78
2021/05/10 07:50:41;;;;;;;3.90;2.17;;;18.60;99.90;;;;;;5076661;28;20199;-76
2021/05/10 07:53:07;;;;;;;4.13;1.93;;;18.30;99.90;;;;;;5076630;28;20286;-76
2021/05/10 07:55:37;;;;;;;5.30;2.30;;;18.40;99.90;;;;;;5076211;28;20244;-77
2021/05/10 07:58:04;;;;;;;4.97;1.90;;;18.50;99.90;;;;;;5076397;28;20202;-79
2021/05/10 08:00:32;;;;;;;3.60;2.00;;;18.60;99.90;;;;;;5075786;28;20207;-76
2021/05/10 08:03:05;;;;;;;5.40;2.30;;;18.60;99.90;;;;;;5075848;28;20541;-78
2021/05/10 08:05:32;;;;;;;2.50;1.70;;;18.40;99.90;;;;;;5076149;28;20297;-78
2021/05/10 08:07:58;;;;;;;3.07;2.13;;;18.30;99.90;;;;;;5076236;28;20230;-76
2021/05/10 08:10:24;;;;;;;6.13;2.30;;;18.30;99.90;;;;;;5075832;28;20198;-81
2021/05/10 08:12:51;;;;;;;5.10;2.27;;;18.20;99.90;;;;;;5075784;28;20237;-77
2021/05/10 08:15:18;;;;;;;2.47;1.90;;;18.10;99.90;;;;;;5075652;28;20290;-81
2021/05/10 08:17:44;;;;;;;6.77;2.00;;;18.10;99.90;;;;;;5075846;28;20264;-76
2021/05/10 08:20:12;;;;;;;6.10;2.33;;;18.30;99.90;;;;;;5075684;28;20198;-76
2021/05/10 08:22:38;;;;;;;4.70;2.27;;;18.40;99.90;;;;;;5075591;28;20254;-76
2021/05/10 08:25:05;;;;;;;5.27;2.03;;;18.30;99.90;;;;;;5075813;28;20307;-76
2021/05/10 08:27:34;;;;;;;5.03;2.33;;;18.20;99.90;;;;;;5075374;28;20254;-76
2021/05/10 08:30:01;;;;;;;3.83;2.10;;;18.30;99.90;;;;;;5075675;28;20218;-76
2021/05/10 08:32:28;;;;;;;7.07;2.57;;;18.40;99.90;;;;;;5075507;28;20278;-78
2021/05/10 08:34:54;;;;;;;4.23;2.50;;;18.40;99.90;;;;;;5075665;28;20199;-79
2021/05/10 08:37:21;;;;;;;5.43;2.53;;;18.30;99.90;;;;;;5075571;28;20290;-79
2021/05/10 08:39:47;;;;;;;5.87;2.40;;;18.40;99.90;;;;;;5075217;28;20661;-76
2021/05/10 08:42:16;;;;;;;6.73;2.90;;;18.50;99.90;;;;;;5075302;28;20286;-77
2021/05/10 08:44:43;;;;;;;4.37;2.13;;;18.60;99.90;;;;;;5075408;28;20223;-76
2021/05/10 08:47:09;;;;;;;5.23;2.27;;;18.60;99.90;;;;;;5075341;28;20215;-79
2021/05/10 08:49:37;;;;;;;3.63;2.10;;;18.70;99.90;;;;;;5075338;28;20370;-76
2021/05/10 08:52:03;;;;;;;7.37;1.90;;;18.60;99.90;;;;;;5075410;28;20187;-76
2021/05/10 08:54:31;;;;;;;7.77;2.40;;;18.60;99.90;;;;;;5065367;28;20616;-77
2021/05/10 08:57:00;;;;;;;8.27;2.30;;;18.50;99.90;;;;;;5055245;28;20200;-77
2021/05/10 08:59:27;;;;;;;6.00;1.97;;;18.80;99.90;;;;;;5055074;28;20330;-77
2021/05/10 09:01:58;;;;;;;7.77;2.10;;;19.40;99.90;;;;;;5055068;28;20196;-77
2021/05/10 09:04:29;;;;;;;6.07;2.60;;;19.70;99.90;;;;;;5054725;28;20215;-77
2021/05/10 09:07:17;;;;;;;5.43;2.10;;;19.70;99.90;;;;;;5054819;28;20216;-78
2021/05/10 09:09:55;;;;;;;4.77;2.13;;;19.60;99.90;;;;;;5054868;28;20227;-76
2021/05/10 09:12:22;;;;;;;4.77;2.17;;;19.50;99.90;;;;;;5055045;28;20188;-79
2021/05/10 09:14:49;;;;;;;7.90;1.90;;;19.40;99.90;;;;;;5054734;28;20533;-77
2021/05/10 09:17:16;;;;;;;2.80;1.50;;;19.50;99.90;;;;;;5054417;28;20288;-76
2021/05/10 09:19:45;;;;;;;6.90;1.80;;;19.70;99.90;;;;;;5054417;28;20287;-77
2021/05/10 09:22:11;;;;;;;9.13;1.73;;;20.10;99.90;;;;;;5069275;28;20206;-76
2021/05/10 09:24:47;;;;;;;5.93;1.90;;;20.30;99.90;;;;;;5075299;28;20203;-76
2021/05/10 09:27:26;;;;;;;6.50;2.00;;;20.30;99.90;;;;;;5076125;28;20219;-76
2021/05/10 09:30:11;;;;;;;5.60;1.77;;;20.90;99.90;;;;;;5077149;28;20225;-76
2021/05/10 09:32:38;;;;;;;5.60;1.70;;;21.00;99.90;;;;;;5076443;28;20198;-78
2021/05/10 09:35:15;;;;;;;8.53;1.80;;;21.50;99.90;;;;;;5076842;28;20290;-75
2021/05/10 09:37:42;;;;;;;4.37;1.90;;;21.70;99.90;;;;;;5077495;28;20203;-76
2021/05/10 09:40:11;;;;;;;7.73;1.97;;;21.80;99.90;;;;;;5077858;28;20660;-76
2021/05/10 09:42:51;;;;;;;7.93;2.03;;;22.00;99.90;;;;;;5077865;28;20537;-75
2021/05/10 09:45:52;;;;;;;7.43;1.80;;;22.40;99.90;;;;;;5077794;28;20191;-75
2021/05/10 09:48:21;;;;;;;4.53;1.70;;;23.50;99.90;;;;;;5076746;28;20298;-76
2021/05/10 09:50:51;;;;;;;5.97;1.60;;;24.30;99.90;;;;;;5076082;28;20203;-77
2021/05/10 09:53:27;;;;;;;6.93;1.92;;;25.30;99.90;;;;;;5075071;28;20191;-76
2021/05/10 09:55:56;;;;;;;3.22;1.38;;;26.30;99.90;;;;;;5074865;28;20203;-76
2021/05/10 09:58:25;;;;;;;4.90;1.70;;;27.10;99.90;;;;;;5075229;28;20276;-76
2021/05/10 10:00:56;;;;;;;6.10;1.55;;;27.60;99.90;;;;;;5074760;28;20287;-78
2021/05/10 10:03:31;;;;;;;8.90;1.80;;;27.60;99.90;;;;;;5074002;28;20195;-76
2021/05/10 10:06:00;;;;;;;4.03;1.70;;;27.50;99.90;;;;;;5074512;28;20198;-78
2021/05/10 10:08:27;;;;;;;5.78;1.50;;;27.20;99.90;;;;;;5074194;28;20352;-76
2021/05/10 10:10:56;;;;;;;7.30;1.63;;;27.00;99.90;;;;;;5073302;28;20199;-77
2021/05/10 10:13:22;;;;;;;8.90;2.35;;;26.90;99.90;;;;;;5074577;28;20236;-76
2021/05/10 10:15:49;;;;;;;7.65;1.70;;;27.00;99.90;;;;;;5074005;28;20226;-77
2021/05/10 10:18:20;;;;;;;4.43;1.55;;;26.90;99.90;;;;;;5074073;28;20230;-76
2021/05/10 10:20:49;;;;;;;7.22;2.08;;;26.60;99.90;;;;;;5073961;28;20191;-78
2021/05/10 10:23:17;;;;;;;7.15;1.73;;;26.90;99.90;;;;;;5073393;28;20544;-76
2021/05/10 10:25:44;;;;;;;5.60;1.98;;;26.40;99.90;;;;;;5073627;28;20195;-76
2021/05/10 10:28:17;;;;;;;6.15;1.70;;;25.50;99.90;;;;;;5073488;28;20304;-76
2021/05/10 10:30:47;;;;;;;9.95;2.00;;;25.20;99.90;;;;;;5073364;28;20183;-76
2021/05/10 10:33:23;;;;;;;4.97;1.83;;;24.20;99.90;;;;;;5073600;28;20180;-76
2021/05/10 10:35:50;;;;;;;5.80;1.60;;;23.50;99.90;;;;;;5073811;28;20307;-77
2021/05/10 10:38:29;;;;;;;4.85;1.45;;;23.90;99.90;;;;;;5073231;28;20217;-75
2021/05/10 10:41:18;;;;;;;4.90;1.20;;;25.10;99.90;;;;;;5073416;28;20187;-75
2021/05/10 10:43:46;;;;;;;6.72;1.67;;;25.40;99.90;;;;;;5073258;28;20214;-76
2021/05/10 10:46:26;;;;;;;4.82;1.65;;;25.60;99.90;;;;;;5073463;28;20191;-76
2021/05/10 10:48:55;;;;;;;7.18;1.77;;;25.50;99.90;;;;;;5073661;28;20183;-75
2021/05/10 10:51:22;;;;;;;3.03;1.23;;;25.20;99.90;;;;;;5073348;28;20199;-74
2021/05/10 10:53:50;;;;;;;5.85;1.50;;;24.70;99.90;;;;;;5073557;28;20544;-77
2021/05/10 10:56:17;;;;;;;6.85;1.77;;;24.90;99.90;;;;;;5073814;28;20203;-75
2021/05/10 10:58:49;;;;;;;5.43;1.60;;;25.20;99.90;;;;;;5073255;28;20223;-77
2021/05/10 11:01:20;;;;;;;4.15;1.45;;;25.40;99.90;;;;;;5073145;28;20625;-75
2021/05/10 11:03:47;;;;;;;4.82;1.63;;;25.50;99.90;;;;;;5072844;28;20195;-75
2021/05/10 11:06:14;;;;;;;4.82;1.60;;;25.80;99.90;;;;;;5073621;28;20294;-75
2021/05/10 11:08:48;;;;;;;4.43;1.52;;;26.00;99.90;;;;;;5073114;28;20310;-76
2021/05/10 11:11:39;;;;;;;4.85;1.52;;;26.10;99.90;;;;;;5073771;28;20187;-77
2021/05/10 11:14:36;;;;;;;4.03;1.05;;;26.30;99.90;;;;;;5063168;28;20191;-76
2021/05/10 11:17:02;;;;;;;5.30;1.40;;;26.60;99.90;;;;;;5072557;28;20243;-76
2021/05/10 11:19:31;;;;;;;7.28;1.45;;;25.30;99.90;;;;;;5072920;28;20716;-75
2021/05/10 11:21:58;;;;;;;3.70;1.13;;;24.30;99.90;;;;;;5074349;28;20197;-75
2021/05/10 11:24:26;;;;;;;3.95;1.25;;;23.10;99.90;;;;;;5076747;28;20256;-75
2021/05/10 11:26:54;;;;;;;5.80;1.30;;;22.30;99.90;;;;;;5076835;28;20306;-75
2021/05/10 11:29:44;;;;;;;3.25;1.38;;;21.70;99.90;;;;;;5077346;28;20245;-76
2021/05/10 11:32:34;;;;;;;4.57;1.60;;;21.50;99.90;;;;;;5076869;28;20195;-74
2021/05/10 11:35:26;;;;;;;6.03;1.80;;;21.20;99.90;;;;;;5076707;28;20274;-78
2021/05/10 11:38:08;;;;;;;5.23;1.70;;;21.00;99.90;;;;;;5077142;28;20202;-76
2021/05/10 11:40:36;;;;;;;12.67;2.30;;;21.20;99.90;;;;;;5077041;28;20203;-77
2021/05/10 11:43:19;;;;;;;3.80;1.83;;;22.70;99.90;;;;;;5077323;28;20191;-75
2021/05/10 11:45:46;;;;;;;7.07;2.20;;;23.00;99.90;;;;;;5076293;28;20191;-75
2021/05/10 11:48:13;;;;;;;5.75;2.25;;;22.80;99.90;;;;;;5076558;28;20219;-75
2021/05/10 11:50:47;;;;;;;7.18;2.53;;;22.20;99.90;;;;;;5076755;28;20199;-75
2021/05/10 11:53:16;;;;;;;8.80;2.13;;;22.10;99.90;;;;;;5076768;28;20486;-75
2021/05/10 11:56:01;;;;;;;11.70;2.67;;;22.00;99.90;;;;;;5076553;28;20195;-75
2021/05/10 11:58:42;;;;;;;6.57;2.40;;;22.00;99.90;;;;;;5076535;28;20286;-75
2021/05/10 12:01:09;;;;;;;3.15;1.48;;;22.00;99.90;;;;;;5076543;28;20287;-78
2021/05/10 12:03:36;;;;;;;6.85;1.70;;;22.20;99.90;;;;;;5076473;28;20195;-76
2021/05/10 12:06:30;;;;;;;4.73;1.70;;;22.70;99.90;;;;;;5076418;28;20199;-75
2021/05/10 12:08:56;;;;;;;6.37;1.77;;;22.50;99.90;;;;;;5076649;28;20282;-76
2021/05/10 12:11:23;;;;;;;5.20;1.60;;;22.20;99.90;;;;;;5076472;28;20278;-76
2021/05/10 12:13:50;;;;;;;6.32;2.05;;;21.80;99.90;;;;;;5076057;28;20668;-75
2021/05/10 12:16:17;;;;;;;7.55;1.92;;;21.70;99.90;;;;;;5076121;28;20198;-76
2021/05/10 12:18:57;;;;;;;12.77;2.05;;;21.80;99.90;;;;;;5076294;28;20227;-75
2021/05/10 12:21:23;;;;;;;9.13;1.88;;;22.10;99.90;;;;;;5076017;28;20278;-75
2021/05/10 12:23:49;;;;;;;14.43;2.30;;;22.10;99.90;;;;;;5075677;28;20641;-78
2021/05/10 12:26:16;;;;;;;11.25;1.85;;;21.80;99.90;;;;;;5076064;28;20191;-77
2021/05/10 12:28:43;;;;;;;2.97;1.50;;;21.80;99.90;;;;;;5075975;28;20257;-76
2021/05/10 12:31:09;;;;;;;6.70;2.30;;;21.70;99.90;;;;;;5075992;28;20196;-75
2021/05/10 12:33:37;;;;;;;9.35;2.58;;;22.10;99.90;;;;;;5075290;28;20230;-75
2021/05/10 12:36:05;;;;;;;5.75;1.77;;;22.20;99.90;;;;;;5075972;28;20198;-75
2021/05/10 12:38:33;;;;;;;9.43;2.08;;;22.10;99.90;;;;;;5075373;28;20195;-77
2021/05/10 12:41:01;;;;;;;4.50;1.83;;;21.80;99.90;;;;;;5075666;28;20187;-74
2021/05/10 12:43:28;;;;;;;6.50;1.70;;;21.50;99.90;;;;;;5075600;28;20291;-76
2021/05/10 12:46:03;;;;;;;5.17;1.47;;;21.30;99.90;;;;;;5072880;28;20196;-75
2021/05/10 12:48:34;;;;;;;5.53;1.50;;;21.30;99.90;;;;;;5073976;28;20545;-77
2021/05/10 12:51:07;;;;;;;5.03;1.77;;;21.50;99.90;;;;;;5075229;28;20196;-75
2021/05/10 12:53:35;;;;;;;5.70;1.63;;;21.60;99.90;;;;;;5075503;28;20252;-75
2021/05/10 12:56:05;;;;;;;4.60;1.65;;;22.20;99.90;;;;;;5075677;28;20279;-78